Terminal Aerodrome Forecast
Issued by NWS

Home | Current Version | Previous Version | Text Only | Print | Product List | Glossary On
Versions: 1 2 3 4 5 6 7 8 9 10 11 12 13 14 15 16 17 18
558
FTUS43 KAPX 082320
TAFTVC
TAF
KTVC 082320Z 0900/0924 33007KT P6SM -SN OVC012
     FM090900 31012KT 3SM -SN BR OVC012
     FM091300 33012G18KT 1SM -SN BLSN OVC012
     FM091600 32012G21KT 1SM -SN BLSN OVC018
     FM091900 34015G25KT 3/4SM -SN BLSN OVC012=

USA.gov is the U.S. government's official web portal to all federal, state and local government web resources and services.